sensor_id;sensor_type;location;lat;lon;timestamp;P1;durP1;ratioP1;P2;durP2;ratioP2
31990;SDS011;18508;49.386;8.370;2023-03-01T00:00:07;24.23;;;10.23;;
31990;SDS011;18508;49.386;8.370;2023-03-01T00:02:36;20.35;;;9.30;;
31990;SDS011;18508;49.386;8.370;2023-03-01T00:05:05;20.70;;;9.95;;
31990;SDS011;18508;49.386;8.370;2023-03-01T00:07:35;23.08;;;9.65;;
31990;SDS011;18508;49.386;8.370;2023-03-01T00:10:05;20.70;;;9.88;;
31990;SDS011;18508;49.386;8.370;2023-03-01T00:12:33;25.13;;;9.68;;
31990;SDS011;18508;49.386;8.370;2023-03-01T00:15:03;30.33;;;12.45;;
31990;SDS011;18508;49.386;8.370;2023-03-01T00:17:33;22.52;;;10.10;;
31990;SDS011;18508;49.386;8.370;2023-03-01T00:20:01;25.63;;;10.48;;
31990;SDS011;18508;49.386;8.370;2023-03-01T00:22:35;22.50;;;10.43;;
31990;SDS011;18508;49.386;8.370;2023-03-01T00:25:03;23.80;;;10.73;;
31990;SDS011;18508;49.386;8.370;2023-03-01T00:27:32;23.60;;;10.32;;
31990;SDS011;18508;49.386;8.370;2023-03-01T00:30:00;24.40;;;9.68;;
31990;SDS011;18508;49.386;8.370;2023-03-01T00:32:29;26.17;;;10.68;;
31990;SDS011;18508;49.386;8.370;2023-03-01T00:34:57;21.52;;;10.25;;
31990;SDS011;18508;49.386;8.370;2023-03-01T00:37:26;22.55;;;10.80;;
31990;SDS011;18508;49.386;8.370;2023-03-01T00:39:56;27.08;;;11.05;;
31990;SDS011;18508;49.386;8.370;2023-03-01T00:42:24;22.55;;;9.50;;
31990;SDS011;18508;49.386;8.370;2023-03-01T00:44:52;25.83;;;11.25;;
31990;SDS011;18508;49.386;8.370;2023-03-01T00:47:21;24.10;;;10.52;;
31990;SDS011;18508;49.386;8.370;2023-03-01T00:49:49;28.42;;;12.35;;
31990;SDS011;18508;49.386;8.370;2023-03-01T00:52:18;25.00;;;11.63;;
31990;SDS011;18508;49.386;8.370;2023-03-01T00:54:47;28.92;;;11.73;;
31990;SDS011;18508;49.386;8.370;2023-03-01T00:57:17;23.23;;;11.07;;
31990;SDS011;18508;49.386;8.370;2023-03-01T00:59:45;23.98;;;10.48;;
31990;SDS011;18508;49.386;8.370;2023-03-01T01:02:16;26.88;;;10.27;;
31990;SDS011;18508;49.386;8.370;2023-03-01T01:04:44;31.08;;;12.25;;
31990;SDS011;18508;49.386;8.370;2023-03-01T01:07:13;26.67;;;11.35;;
31990;SDS011;18508;49.386;8.370;2023-03-01T01:09:44;27.02;;;10.95;;
31990;SDS011;18508;49.386;8.370;2023-03-01T01:12:15;30.02;;;10.90;;
31990;SDS011;18508;49.386;8.370;2023-03-01T01:14:46;27.83;;;11.18;;
31990;SDS011;18508;49.386;8.370;2023-03-01T01:17:15;24.98;;;10.93;;
31990;SDS011;18508;49.386;8.370;2023-03-01T01:19:44;26.30;;;11.23;;
31990;SDS011;18508;49.386;8.370;2023-03-01T01:22:13;26.17;;;11.70;;
31990;SDS011;18508;49.386;8.370;2023-03-01T01:24:42;30.90;;;11.50;;
31990;SDS011;18508;49.386;8.370;2023-03-01T01:27:10;26.10;;;12.25;;
31990;SDS011;18508;49.386;8.370;2023-03-01T01:29:38;23.35;;;10.82;;
31990;SDS011;18508;49.386;8.370;2023-03-01T01:32:09;25.05;;;10.70;;
31990;SDS011;18508;49.386;8.370;2023-03-01T01:34:38;26.05;;;10.82;;
31990;SDS011;18508;49.386;8.370;2023-03-01T01:37:07;23.90;;;10.43;;
31990;SDS011;18508;49.386;8.370;2023-03-01T01:39:35;26.83;;;11.27;;
31990;SDS011;18508;49.386;8.370;2023-03-01T01:42:04;26.63;;;11.27;;
31990;SDS011;18508;49.386;8.370;2023-03-01T01:44:33;28.27;;;11.00;;
31990;SDS011;18508;49.386;8.370;2023-03-01T01:47:03;23.00;;;10.73;;
31990;SDS011;18508;49.386;8.370;2023-03-01T01:49:37;24.30;;;11.07;;
31990;SDS011;18508;49.386;8.370;2023-03-01T01:52:11;22.52;;;11.10;;
31990;SDS011;18508;49.386;8.370;2023-03-01T01:54:45;28.40;;;11.23;;
31990;SDS011;18508;49.386;8.370;2023-03-01T01:59:49;24.50;;;12.02;;
31990;SDS011;18508;49.386;8.370;2023-03-01T02:02:19;24.00;;;11.15;;
31990;SDS011;18508;49.386;8.370;2023-03-01T02:04:50;26.25;;;12.13;;
31990;SDS011;18508;49.386;8.370;2023-03-01T02:07:24;27.73;;;11.38;;
31990;SDS011;18508;49.386;8.370;2023-03-01T02:09:54;27.40;;;11.57;;
31990;SDS011;18508;49.386;8.370;2023-03-01T02:12:23;25.77;;;11.52;;
31990;SDS011;18508;49.386;8.370;2023-03-01T02:14:54;22.80;;;10.38;;
31990;SDS011;18508;49.386;8.370;2023-03-01T02:17:25;27.67;;;12.07;;
31990;SDS011;18508;49.386;8.370;2023-03-01T02:19:58;30.42;;;12.20;;
31990;SDS011;18508;49.386;8.370;2023-03-01T02:22:35;25.50;;;11.40;;
31990;SDS011;18508;49.386;8.370;2023-03-01T02:27:47;25.65;;;11.85;;
31990;SDS011;18508;49.386;8.370;2023-03-01T02:30:25;30.35;;;12.10;;
31990;SDS011;18508;49.386;8.370;2023-03-01T02:32:54;30.63;;;11.93;;
31990;SDS011;18508;49.386;8.370;2023-03-01T02:35:30;25.63;;;11.65;;
31990;SDS011;18508;49.386;8.370;2023-03-01T02:38:01;27.95;;;12.55;;
31990;SDS011;18508;49.386;8.370;2023-03-01T02:40:31;28.27;;;11.93;;
31990;SDS011;18508;49.386;8.370;2023-03-01T02:43:01;27.45;;;12.35;;
31990;SDS011;18508;49.386;8.370;2023-03-01T02:45:36;28.35;;;12.15;;
31990;SDS011;18508;49.386;8.370;2023-03-01T02:48:04;27.00;;;12.52;;
31990;SDS011;18508;49.386;8.370;2023-03-01T02:50:44;27.42;;;12.48;;
31990;SDS011;18508;49.386;8.370;2023-03-01T02:53:21;29.75;;;13.00;;
31990;SDS011;18508;49.386;8.370;2023-03-01T02:55:55;30.70;;;13.50;;
31990;SDS011;18508;49.386;8.370;2023-03-01T02:58:26;29.58;;;12.88;;
31990;SDS011;18508;49.386;8.370;2023-03-01T03:00:56;29.30;;;12.57;;
31990;SDS011;18508;49.386;8.370;2023-03-01T03:03:28;27.42;;;12.00;;
31990;SDS011;18508;49.386;8.370;2023-03-01T03:05:56;29.20;;;12.73;;
31990;SDS011;18508;49.386;8.370;2023-03-01T03:08:25;28.65;;;11.90;;
31990;SDS011;18508;49.386;8.370;2023-03-01T03:10:53;30.02;;;12.60;;
31990;SDS011;18508;49.386;8.370;2023-03-01T03:13:23;31.23;;;12.20;;
31990;SDS011;18508;49.386;8.370;2023-03-01T03:15:54;28.88;;;13.23;;
31990;SDS011;18508;49.386;8.370;2023-03-01T03:18:25;30.77;;;13.82;;
31990;SDS011;18508;49.386;8.370;2023-03-01T03:20:54;28.80;;;12.02;;
31990;SDS011;18508;49.386;8.370;2023-03-01T03:23:22;32.63;;;12.90;;
31990;SDS011;18508;49.386;8.370;2023-03-01T03:25:51;30.73;;;13.35;;
31990;SDS011;18508;49.386;8.370;2023-03-01T03:28:19;31.70;;;12.98;;
31990;SDS011;18508;49.386;8.370;2023-03-01T03:30:48;28.10;;;12.38;;
31990;SDS011;18508;49.386;8.370;2023-03-01T03:33:18;32.90;;;13.73;;
31990;SDS011;18508;49.386;8.370;2023-03-01T03:35:48;28.15;;;12.07;;
31990;SDS011;18508;49.386;8.370;2023-03-01T03:38:18;32.85;;;12.63;;
31990;SDS011;18508;49.386;8.370;2023-03-01T03:40:49;28.02;;;13.45;;
31990;SDS011;18508;49.386;8.370;2023-03-01T03:43:19;31.75;;;13.30;;
31990;SDS011;18508;49.386;8.370;2023-03-01T03:45:49;27.13;;;12.50;;
31990;SDS011;18508;49.386;8.370;2023-03-01T03:48:19;29.42;;;12.48;;
31990;SDS011;18508;49.386;8.370;2023-03-01T03:50:48;27.45;;;12.45;;
31990;SDS011;18508;49.386;8.370;2023-03-01T03:53:19;28.27;;;11.85;;
31990;SDS011;18508;49.386;8.370;2023-03-01T03:55:48;33.42;;;13.13;;
31990;SDS011;18508;49.386;8.370;2023-03-01T03:58:18;29.95;;;13.18;;
31990;SDS011;18508;49.386;8.370;2023-03-01T04:00:47;30.85;;;12.93;;
31990;SDS011;18508;49.386;8.370;2023-03-01T04:03:20;33.90;;;13.55;;
31990;SDS011;18508;49.386;8.370;2023-03-01T04:05:49;30.92;;;12.63;;
31990;SDS011;18508;49.386;8.370;2023-03-01T04:08:18;35.35;;;13.35;;
31990;SDS011;18508;49.386;8.370;2023-03-01T04:10:48;36.88;;;14.15;;
31990;SDS011;18508;49.386;8.370;2023-03-01T04:13:18;35.13;;;13.90;;
31990;SDS011;18508;49.386;8.370;2023-03-01T04:15:48;35.25;;;14.77;;
31990;SDS011;18508;49.386;8.370;2023-03-01T04:18:18;34.55;;;13.75;;
31990;SDS011;18508;49.386;8.370;2023-03-01T04:20:50;29.02;;;12.90;;
31990;SDS011;18508;49.386;8.370;2023-03-01T04:23:21;31.48;;;13.93;;
31990;SDS011;18508;49.386;8.370;2023-03-01T04:25:55;30.00;;;14.63;;
31990;SDS011;18508;49.386;8.370;2023-03-01T04:28:26;31.75;;;14.18;;
31990;SDS011;18508;49.386;8.370;2023-03-01T04:30:57;39.25;;;14.02;;
31990;SDS011;18508;49.386;8.370;2023-03-01T04:33:28;32.70;;;13.82;;
31990;SDS011;18508;49.386;8.370;2023-03-01T04:35:58;35.83;;;14.93;;
31990;SDS011;18508;49.386;8.370;2023-03-01T04:38:31;32.72;;;13.52;;
31990;SDS011;18508;49.386;8.370;2023-03-01T04:41:00;33.97;;;13.55;;
31990;SDS011;18508;49.386;8.370;2023-03-01T04:43:29;34.88;;;14.40;;
31990;SDS011;18508;49.386;8.370;2023-03-01T04:45:59;33.30;;;13.82;;
31990;SDS011;18508;49.386;8.370;2023-03-01T04:48:31;33.75;;;14.45;;
31990;SDS011;18508;49.386;8.370;2023-03-01T04:51:00;37.55;;;14.65;;
31990;SDS011;18508;49.386;8.370;2023-03-01T04:53:28;34.15;;;13.80;;
31990;SDS011;18508;49.386;8.370;2023-03-01T04:55:57;33.60;;;13.70;;
31990;SDS011;18508;49.386;8.370;2023-03-01T04:58:28;37.78;;;15.60;;
31990;SDS011;18508;49.386;8.370;2023-03-01T05:00:56;31.30;;;14.63;;
31990;SDS011;18508;49.386;8.370;2023-03-01T05:03:25;35.58;;;15.05;;
31990;SDS011;18508;49.386;8.370;2023-03-01T05:05:58;34.30;;;14.00;;
31990;SDS011;18508;49.386;8.370;2023-03-01T05:08:26;38.85;;;14.70;;
31990;SDS011;18508;49.386;8.370;2023-03-01T05:10:55;40.42;;;14.75;;
31990;SDS011;18508;49.386;8.370;2023-03-01T05:13:24;32.63;;;13.82;;
31990;SDS011;18508;49.386;8.370;2023-03-01T05:15:53;36.53;;;15.18;;
31990;SDS011;18508;49.386;8.370;2023-03-01T05:18:23;34.28;;;14.02;;
31990;SDS011;18508;49.386;8.370;2023-03-01T05:20:52;35.33;;;14.65;;
31990;SDS011;18508;49.386;8.370;2023-03-01T05:23:27;38.40;;;15.18;;
31990;SDS011;18508;49.386;8.370;2023-03-01T05:25:57;36.53;;;14.75;;
31990;SDS011;18508;49.386;8.370;2023-03-01T05:28:27;38.65;;;16.75;;
31990;SDS011;18508;49.386;8.370;2023-03-01T05:30:56;35.55;;;14.85;;
31990;SDS011;18508;49.386;8.370;2023-03-01T05:33:27;44.60;;;19.13;;
31990;SDS011;18508;49.386;8.370;2023-03-01T05:35:59;42.92;;;16.88;;
31990;SDS011;18508;49.386;8.370;2023-03-01T05:38:29;37.85;;;16.13;;
31990;SDS011;18508;49.386;8.370;2023-03-01T05:40:57;34.80;;;14.85;;
31990;SDS011;18508;49.386;8.370;2023-03-01T05:43:26;38.03;;;15.45;;
31990;SDS011;18508;49.386;8.370;2023-03-01T05:45:55;40.00;;;15.77;;
31990;SDS011;18508;49.386;8.370;2023-03-01T05:48:26;34.25;;;14.15;;
31990;SDS011;18508;49.386;8.370;2023-03-01T05:50:54;36.85;;;16.08;;
31990;SDS011;18508;49.386;8.370;2023-03-01T05:53:23;39.10;;;15.45;;
31990;SDS011;18508;49.386;8.370;2023-03-01T05:55:54;32.38;;;15.02;;
31990;SDS011;18508;49.386;8.370;2023-03-01T05:58:22;38.08;;;14.60;;
31990;SDS011;18508;49.386;8.370;2023-03-01T06:00:50;39.75;;;15.30;;
31990;SDS011;18508;49.386;8.370;2023-03-01T06:03:21;36.38;;;15.20;;
31990;SDS011;18508;49.386;8.370;2023-03-01T06:05:49;39.78;;;15.93;;
31990;SDS011;18508;49.386;8.370;2023-03-01T06:08:18;41.42;;;15.95;;
31990;SDS011;18508;49.386;8.370;2023-03-01T06:10:48;38.30;;;15.70;;
31990;SDS011;18508;49.386;8.370;2023-03-01T06:13:18;40.47;;;16.25;;
31990;SDS011;18508;49.386;8.370;2023-03-01T06:15:46;41.15;;;16.75;;
31990;SDS011;18508;49.386;8.370;2023-03-01T06:18:16;37.17;;;15.50;;
31990;SDS011;18508;49.386;8.370;2023-03-01T06:20:45;38.28;;;14.40;;
31990;SDS011;18508;49.386;8.370;2023-03-01T06:23:20;35.50;;;14.68;;
31990;SDS011;18508;49.386;8.370;2023-03-01T06:25:52;44.65;;;14.93;;
31990;SDS011;18508;49.386;8.370;2023-03-01T06:28:23;35.90;;;13.60;;
31990;SDS011;18508;49.386;8.370;2023-03-01T06:30:51;35.15;;;14.35;;
31990;SDS011;18508;49.386;8.370;2023-03-01T06:33:20;36.97;;;15.40;;
31990;SDS011;18508;49.386;8.370;2023-03-01T06:35:50;37.17;;;15.60;;
31990;SDS011;18508;49.386;8.370;2023-03-01T06:38:19;35.22;;;14.95;;
31990;SDS011;18508;49.386;8.370;2023-03-01T06:40:51;41.15;;;16.98;;
31990;SDS011;18508;49.386;8.370;2023-03-01T06:43:24;40.63;;;15.95;;
31990;SDS011;18508;49.386;8.370;2023-03-01T06:45:52;40.17;;;15.70;;
31990;SDS011;18508;49.386;8.370;2023-03-01T06:48:20;39.65;;;15.63;;
31990;SDS011;18508;49.386;8.370;2023-03-01T06:50:51;42.55;;;15.32;;
31990;SDS011;18508;49.386;8.370;2023-03-01T06:53:22;39.15;;;17.10;;
31990;SDS011;18508;49.386;8.370;2023-03-01T06:55:53;48.85;;;16.92;;
31990;SDS011;18508;49.386;8.370;2023-03-01T06:58:23;38.17;;;16.58;;
31990;SDS011;18508;49.386;8.370;2023-03-01T07:00:52;35.50;;;15.55;;
31990;SDS011;18508;49.386;8.370;2023-03-01T07:03:21;40.63;;;16.77;;
31990;SDS011;18508;49.386;8.370;2023-03-01T07:05:50;40.45;;;16.95;;
31990;SDS011;18508;49.386;8.370;2023-03-01T07:08:18;40.85;;;15.55;;
31990;SDS011;18508;49.386;8.370;2023-03-01T07:10:47;38.67;;;15.35;;
31990;SDS011;18508;49.386;8.370;2023-03-01T07:13:17;38.88;;;16.05;;
31990;SDS011;18508;49.386;8.370;2023-03-01T07:15:48;33.10;;;15.50;;
31990;SDS011;18508;49.386;8.370;2023-03-01T07:18:16;40.58;;;16.08;;
31990;SDS011;18508;49.386;8.370;2023-03-01T07:20:47;34.90;;;15.05;;
31990;SDS011;18508;49.386;8.370;2023-03-01T07:23:16;40.53;;;16.45;;
31990;SDS011;18508;49.386;8.370;2023-03-01T07:25:50;35.05;;;14.95;;
31990;SDS011;18508;49.386;8.370;2023-03-01T07:28:19;37.10;;;15.43;;
31990;SDS011;18508;49.386;8.370;2023-03-01T07:30:50;37.55;;;16.35;;
31990;SDS011;18508;49.386;8.370;2023-03-01T07:33:19;44.92;;;16.00;;
31990;SDS011;18508;49.386;8.370;2023-03-01T07:35:48;35.30;;;14.80;;
31990;SDS011;18508;49.386;8.370;2023-03-01T07:38:16;35.42;;;15.00;;
31990;SDS011;18508;49.386;8.370;2023-03-01T07:40:45;31.92;;;14.05;;
31990;SDS011;18508;49.386;8.370;2023-03-01T07:43:14;32.85;;;13.30;;
31990;SDS011;18508;49.386;8.370;2023-03-01T07:45:44;36.97;;;15.50;;
31990;SDS011;18508;49.386;8.370;2023-03-01T07:48:13;39.22;;;14.93;;
31990;SDS011;18508;49.386;8.370;2023-03-01T07:50:41;37.88;;;15.23;;
31990;SDS011;18508;49.386;8.370;2023-03-01T07:53:10;38.17;;;16.00;;
31990;SDS011;18508;49.386;8.370;2023-03-01T07:55:38;36.20;;;16.10;;
31990;SDS011;18508;49.386;8.370;2023-03-01T07:58:07;31.10;;;14.48;;
31990;SDS011;18508;49.386;8.370;2023-03-01T08:00:35;30.85;;;14.07;;
31990;SDS011;18508;49.386;8.370;2023-03-01T08:03:04;34.17;;;14.10;;
31990;SDS011;18508;49.386;8.370;2023-03-01T08:05:38;33.47;;;14.57;;
31990;SDS011;18508;49.386;8.370;2023-03-01T08:08:06;30.33;;;14.48;;
31990;SDS011;18508;49.386;8.370;2023-03-01T08:10:36;35.10;;;14.60;;
31990;SDS011;18508;49.386;8.370;2023-03-01T08:13:04;35.45;;;15.57;;
31990;SDS011;18508;49.386;8.370;2023-03-01T08:15:33;32.92;;;14.15;;
31990;SDS011;18508;49.386;8.370;2023-03-01T08:18:03;36.00;;;14.95;;
31990;SDS011;18508;49.386;8.370;2023-03-01T08:20:32;31.83;;;13.48;;
31990;SDS011;18508;49.386;8.370;2023-03-01T08:23:03;31.08;;;14.32;;
31990;SDS011;18508;49.386;8.370;2023-03-01T08:25:33;32.75;;;15.38;;
31990;SDS011;18508;49.386;8.370;2023-03-01T08:28:01;36.35;;;16.10;;
31990;SDS011;18508;49.386;8.370;2023-03-01T08:30:29;30.80;;;14.65;;
31990;SDS011;18508;49.386;8.370;2023-03-01T08:32:58;34.10;;;14.85;;
31990;SDS011;18508;49.386;8.370;2023-03-01T08:35:27;38.38;;;16.77;;
31990;SDS011;18508;49.386;8.370;2023-03-01T08:37:57;29.52;;;14.27;;
31990;SDS011;18508;49.386;8.370;2023-03-01T08:40:27;33.45;;;15.73;;
31990;SDS011;18508;49.386;8.370;2023-03-01T08:42:56;30.70;;;14.98;;
31990;SDS011;18508;49.386;8.370;2023-03-01T08:45:26;30.40;;;14.23;;
31990;SDS011;18508;49.386;8.370;2023-03-01T08:47:55;36.33;;;14.63;;
31990;SDS011;18508;49.386;8.370;2023-03-01T08:50:24;35.63;;;13.80;;
31990;SDS011;18508;49.386;8.370;2023-03-01T08:52:52;38.70;;;15.52;;
31990;SDS011;18508;49.386;8.370;2023-03-01T08:55:21;31.15;;;14.57;;
31990;SDS011;18508;49.386;8.370;2023-03-01T08:57:51;32.22;;;15.95;;
31990;SDS011;18508;49.386;8.370;2023-03-01T09:00:19;31.48;;;15.00;;
31990;SDS011;18508;49.386;8.370;2023-03-01T09:02:49;36.22;;;15.18;;
31990;SDS011;18508;49.386;8.370;2023-03-01T09:05:18;30.55;;;14.90;;
31990;SDS011;18508;49.386;8.370;2023-03-01T09:07:46;28.30;;;13.95;;
31990;SDS011;18508;49.386;8.370;2023-03-01T09:10:15;33.28;;;14.52;;
31990;SDS011;18508;49.386;8.370;2023-03-01T09:12:44;27.27;;;13.80;;
31990;SDS011;18508;49.386;8.370;2023-03-01T09:15:14;30.88;;;14.55;;
31990;SDS011;18508;49.386;8.370;2023-03-01T09:17:42;27.70;;;13.88;;
31990;SDS011;18508;49.386;8.370;2023-03-01T09:20:11;28.10;;;14.20;;
31990;SDS011;18508;49.386;8.370;2023-03-01T09:22:40;34.33;;;14.98;;
31990;SDS011;18508;49.386;8.370;2023-03-01T09:25:10;30.30;;;15.15;;
31990;SDS011;18508;49.386;8.370;2023-03-01T09:27:38;33.17;;;14.73;;
31990;SDS011;18508;49.386;8.370;2023-03-01T09:30:10;32.60;;;14.48;;
31990;SDS011;18508;49.386;8.370;2023-03-01T09:32:40;37.95;;;15.98;;
31990;SDS011;18508;49.386;8.370;2023-03-01T09:35:11;30.40;;;14.65;;
31990;SDS011;18508;49.386;8.370;2023-03-01T09:37:39;33.88;;;14.18;;
31990;SDS011;18508;49.386;8.370;2023-03-01T09:40:11;31.67;;;15.45;;
31990;SDS011;18508;49.386;8.370;2023-03-01T09:42:48;31.35;;;15.55;;
31990;SDS011;18508;49.386;8.370;2023-03-01T09:45:25;26.85;;;13.40;;
31990;SDS011;18508;49.386;8.370;2023-03-01T09:48:00;36.35;;;15.35;;
31990;SDS011;18508;49.386;8.370;2023-03-01T09:50:32;33.25;;;15.52;;
31990;SDS011;18508;49.386;8.370;2023-03-01T09:53:06;32.50;;;15.32;;
31990;SDS011;18508;49.386;8.370;2023-03-01T09:55:39;33.78;;;16.27;;
31990;SDS011;18508;49.386;8.370;2023-03-01T09:58:28;32.72;;;16.30;;
31990;SDS011;18508;49.386;8.370;2023-03-01T10:01:04;33.63;;;16.88;;
31990;SDS011;18508;49.386;8.370;2023-03-01T10:03:53;31.17;;;15.68;;
31990;SDS011;18508;49.386;8.370;2023-03-01T10:06:49;30.63;;;14.93;;
31990;SDS011;18508;49.386;8.370;2023-03-01T10:09:24;30.58;;;15.40;;
31990;SDS011;18508;49.386;8.370;2023-03-01T10:11:54;30.77;;;15.43;;
31990;SDS011;18508;49.386;8.370;2023-03-01T10:14:27;33.75;;;16.25;;
31990;SDS011;18508;49.386;8.370;2023-03-01T10:17:00;28.73;;;15.27;;
31990;SDS011;18508;49.386;8.370;2023-03-01T10:19:36;35.17;;;16.50;;
31990;SDS011;18508;49.386;8.370;2023-03-01T10:22:11;32.47;;;16.05;;
31990;SDS011;18508;49.386;8.370;2023-03-01T10:24:43;31.90;;;15.85;;
31990;SDS011;18508;49.386;8.370;2023-03-01T10:27:14;33.70;;;14.95;;
31990;SDS011;18508;49.386;8.370;2023-03-01T10:29:50;34.85;;;15.80;;
31990;SDS011;18508;49.386;8.370;2023-03-01T10:32:28;30.25;;;14.82;;
31990;SDS011;18508;49.386;8.370;2023-03-01T10:34:59;30.30;;;16.30;;
31990;SDS011;18508;49.386;8.370;2023-03-01T10:37:27;35.25;;;16.15;;
31990;SDS011;18508;49.386;8.370;2023-03-01T10:39:57;30.55;;;15.40;;
31990;SDS011;18508;49.386;8.370;2023-03-01T10:42:33;33.10;;;16.48;;
31990;SDS011;18508;49.386;8.370;2023-03-01T10:48:03;29.77;;;15.23;;
31990;SDS011;18508;49.386;8.370;2023-03-01T10:50:34;31.27;;;16.00;;
31990;SDS011;18508;49.386;8.370;2023-03-01T10:53:09;29.92;;;15.88;;
31990;SDS011;18508;49.386;8.370;2023-03-01T10:55:56;29.27;;;14.80;;
31990;SDS011;18508;49.386;8.370;2023-03-01T10:58:29;33.08;;;15.55;;
31990;SDS011;18508;49.386;8.370;2023-03-01T11:00:59;30.98;;;16.88;;
31990;SDS011;18508;49.386;8.370;2023-03-01T11:03:29;35.42;;;16.02;;
31990;SDS011;18508;49.386;8.370;2023-03-01T11:06:05;30.48;;;15.65;;
31990;SDS011;18508;49.386;8.370;2023-03-01T11:08:50;30.08;;;15.25;;
31990;SDS011;18508;49.386;8.370;2023-03-01T11:11:22;30.98;;;15.35;;
31990;SDS011;18508;49.386;8.370;2023-03-01T11:13:54;33.17;;;16.42;;
31990;SDS011;18508;49.386;8.370;2023-03-01T11:16:28;29.63;;;15.10;;
31990;SDS011;18508;49.386;8.370;2023-03-01T11:19:16;33.72;;;15.80;;
31990;SDS011;18508;49.386;8.370;2023-03-01T11:21:50;32.35;;;15.48;;
31990;SDS011;18508;49.386;8.370;2023-03-01T11:24:23;28.83;;;15.77;;
31990;SDS011;18508;49.386;8.370;2023-03-01T11:26:56;35.67;;;17.35;;
31990;SDS011;18508;49.386;8.370;2023-03-01T11:29:32;32.85;;;16.45;;
31990;SDS011;18508;49.386;8.370;2023-03-01T11:32:14;30.25;;;15.85;;
31990;SDS011;18508;49.386;8.370;2023-03-01T11:34:45;32.90;;;16.05;;
31990;SDS011;18508;49.386;8.370;2023-03-01T11:37:26;31.02;;;15.88;;
31990;SDS011;18508;49.386;8.370;2023-03-01T11:40:02;32.50;;;15.38;;
31990;SDS011;18508;49.386;8.370;2023-03-01T11:42:45;28.48;;;15.23;;
31990;SDS011;18508;49.386;8.370;2023-03-01T11:45:22;32.03;;;15.63;;
31990;SDS011;18508;49.386;8.370;2023-03-01T11:47:58;31.35;;;15.80;;
31990;SDS011;18508;49.386;8.370;2023-03-01T11:50:39;30.73;;;16.80;;
31990;SDS011;18508;49.386;8.370;2023-03-01T11:53:20;31.13;;;15.98;;
31990;SDS011;18508;49.386;8.370;2023-03-01T11:56:03;33.70;;;16.77;;
31990;SDS011;18508;49.386;8.370;2023-03-01T11:58:51;28.98;;;14.98;;
31990;SDS011;18508;49.386;8.370;2023-03-01T12:01:32;33.30;;;16.13;;
31990;SDS011;18508;49.386;8.370;2023-03-01T12:04:25;34.15;;;15.88;;
31990;SDS011;18508;49.386;8.370;2023-03-01T12:07:19;28.35;;;15.43;;
31990;SDS011;18508;49.386;8.370;2023-03-01T12:09:57;28.25;;;15.00;;
31990;SDS011;18508;49.386;8.370;2023-03-01T12:12:46;32.60;;;15.60;;
31990;SDS011;18508;49.386;8.370;2023-03-01T12:15:46;30.77;;;16.08;;
31990;SDS011;18508;49.386;8.370;2023-03-01T12:18:42;32.60;;;16.10;;
31990;SDS011;18508;49.386;8.370;2023-03-01T12:21:27;32.63;;;15.57;;
31990;SDS011;18508;49.386;8.370;2023-03-01T12:24:12;31.98;;;16.45;;
31990;SDS011;18508;49.386;8.370;2023-03-01T12:26:59;28.42;;;15.32;;
31990;SDS011;18508;49.386;8.370;2023-03-01T12:29:43;30.92;;;15.48;;
31990;SDS011;18508;49.386;8.370;2023-03-01T12:32:32;26.10;;;15.15;;
31990;SDS011;18508;49.386;8.370;2023-03-01T12:35:15;27.63;;;14.98;;
31990;SDS011;18508;49.386;8.370;2023-03-01T12:37:56;28.77;;;14.45;;
31990;SDS011;18508;49.386;8.370;2023-03-01T12:40:40;28.45;;;15.38;;
31990;SDS011;18508;49.386;8.370;2023-03-01T12:43:23;29.00;;;13.88;;
31990;SDS011;18508;49.386;8.370;2023-03-01T12:46:09;29.35;;;15.23;;
31990;SDS011;18508;49.386;8.370;2023-03-01T12:48:48;30.00;;;15.13;;
31990;SDS011;18508;49.386;8.370;2023-03-01T12:51:28;31.17;;;15.95;;
31990;SDS011;18508;49.386;8.370;2023-03-01T12:54:01;27.73;;;14.52;;
31990;SDS011;18508;49.386;8.370;2023-03-01T12:56:39;27.33;;;14.13;;
31990;SDS011;18508;49.386;8.370;2023-03-01T12:59:11;29.10;;;15.43;;
31990;SDS011;18508;49.386;8.370;2023-03-01T13:01:48;25.90;;;13.52;;
31990;SDS011;18508;49.386;8.370;2023-03-01T13:04:26;27.15;;;13.30;;
31990;SDS011;18508;49.386;8.370;2023-03-01T13:07:13;29.63;;;15.25;;
31990;SDS011;18508;49.386;8.370;2023-03-01T13:09:49;28.52;;;14.52;;
31990;SDS011;18508;49.386;8.370;2023-03-01T13:12:49;27.67;;;14.63;;
31990;SDS011;18508;49.386;8.370;2023-03-01T13:15:32;23.02;;;12.15;;
31990;SDS011;18508;49.386;8.370;2023-03-01T13:18:02;25.88;;;14.75;;
31990;SDS011;18508;49.386;8.370;2023-03-01T13:20:33;26.13;;;13.93;;
31990;SDS011;18508;49.386;8.370;2023-03-01T13:23:13;29.17;;;14.70;;
31990;SDS011;18508;49.386;8.370;2023-03-01T13:26:04;25.55;;;13.57;;
31990;SDS011;18508;49.386;8.370;2023-03-01T13:28:51;25.70;;;14.55;;
31990;SDS011;18508;49.386;8.370;2023-03-01T13:43:29;21.98;;;12.88;;
31990;SDS011;18508;49.386;8.370;2023-03-01T13:45:59;23.17;;;12.35;;
31990;SDS011;18508;49.386;8.370;2023-03-01T13:48:31;24.23;;;12.57;;
31990;SDS011;18508;49.386;8.370;2023-03-01T13:51:08;23.00;;;12.10;;
31990;SDS011;18508;49.386;8.370;2023-03-01T13:53:43;22.95;;;12.75;;
31990;SDS011;18508;49.386;8.370;2023-03-01T13:56:15;23.00;;;13.43;;
31990;SDS011;18508;49.386;8.370;2023-03-01T13:58:52;24.38;;;13.25;;
31990;SDS011;18508;49.386;8.370;2023-03-01T14:01:26;25.30;;;13.13;;
31990;SDS011;18508;49.386;8.370;2023-03-01T14:03:57;23.50;;;13.02;;
31990;SDS011;18508;49.386;8.370;2023-03-01T14:06:28;21.98;;;12.70;;
31990;SDS011;18508;49.386;8.370;2023-03-01T14:09:02;25.15;;;12.25;;
31990;SDS011;18508;49.386;8.370;2023-03-01T14:14:52;23.70;;;12.95;;
31990;SDS011;18508;49.386;8.370;2023-03-01T14:17:34;21.13;;;12.02;;
31990;SDS011;18508;49.386;8.370;2023-03-01T14:20:20;23.45;;;13.00;;
31990;SDS011;18508;49.386;8.370;2023-03-01T14:22:54;23.65;;;11.55;;
31990;SDS011;18508;49.386;8.370;2023-03-01T14:25:24;22.60;;;12.15;;
31990;SDS011;18508;49.386;8.370;2023-03-01T14:27:55;20.95;;;11.65;;
31990;SDS011;18508;49.386;8.370;2023-03-01T14:30:31;23.95;;;13.05;;
31990;SDS011;18508;49.386;8.370;2023-03-01T14:33:03;21.38;;;11.82;;
31990;SDS011;18508;49.386;8.370;2023-03-01T14:35:34;22.45;;;11.00;;
31990;SDS011;18508;49.386;8.370;2023-03-01T14:38:05;20.88;;;11.02;;
31990;SDS011;18508;49.386;8.370;2023-03-01T14:40:34;21.17;;;12.00;;
31990;SDS011;18508;49.386;8.370;2023-03-01T14:43:08;19.73;;;11.70;;
31990;SDS011;18508;49.386;8.370;2023-03-01T14:45:38;20.73;;;11.50;;
31990;SDS011;18508;49.386;8.370;2023-03-01T14:48:07;20.15;;;11.38;;
31990;SDS011;18508;49.386;8.370;2023-03-01T14:50:40;21.30;;;11.38;;
31990;SDS011;18508;49.386;8.370;2023-03-01T14:53:15;23.10;;;11.95;;
31990;SDS011;18508;49.386;8.370;2023-03-01T14:55:47;21.27;;;11.15;;
31990;SDS011;18508;49.386;8.370;2023-03-01T15:00:50;23.10;;;11.30;;
31990;SDS011;18508;49.386;8.370;2023-03-01T15:03:23;20.98;;;11.63;;
31990;SDS011;18508;49.386;8.370;2023-03-01T15:05:55;22.92;;;12.35;;
31990;SDS011;18508;49.386;8.370;2023-03-01T15:08:25;19.30;;;11.15;;
31990;SDS011;18508;49.386;8.370;2023-03-01T15:11:01;21.67;;;11.43;;
31990;SDS011;18508;49.386;8.370;2023-03-01T15:13:34;18.25;;;10.95;;
31990;SDS011;18508;49.386;8.370;2023-03-01T15:16:06;20.55;;;10.50;;